• Join FlightAware (Why Join?)
  • Login
  • US Flag 
02:19PM EDT


 

Airport Tracker/Info


-or-


 

Live Flight TrackerFlight Track Log ✈ N50906 ✈ 17-Dec-2013 ✈ KDEC - KUBX

Flight Track Log - Related Links

Times and Time Zones

All times are in EST time to prevent confusion due to time zone crossing. See the N50906 flight status page for this flight to view local times or setup timezone preferences in your user account.

Time Position Orientation Groundspeed Altitude Reporting Facility
EST Latitude Longitude Course Direction KTS MPH feet Rate Location/Type
06:08PM 39.6550 -88.9044 236° Southwest 86 99 4,400  Level Chicago Center
06:09PM 39.6419 -88.9297 236° Southwest 86 99 4,400  Level Chicago Center
06:10PM 39.6314 -88.9558 242° Southwest 84 97 4,400  Level Chicago Center
06:11PM 39.6175 -88.9814 235° Southwest 85 98 4,400  Level Chicago Center
06:12PM 39.6011 -89.0047 228° Southwest 86 99 4,400  Level Chicago Center
06:13PM 39.5839 -89.0358 234° Southwest 87 100 4,400  Level Chicago Center
06:14PM 39.5692 -89.0597 231° Southwest 87 100 4,500  Climbing Chicago Center
06:15PM 39.5550 -89.0839 233° Southwest 85 98 4,500 -60 Level Chicago Center
06:16PM 39.5436 -89.1089 239° Southwest 84 97 4,400 -60 Descending Chicago Center
06:17PM 39.5275 -89.1350 231° Southwest 86 99 4,400  Level Chicago Center
06:18PM 39.5128 -89.1589 231° Southwest 87 100 4,500  Climbing Chicago Center
06:19PM 39.4981 -89.1836 232° Southwest 86 99 4,500  Level Chicago Center
06:20PM 39.4808 -89.2150 235° Southwest 87 100 4,500  Level Chicago Center
06:21PM 39.4672 -89.2400 235° Southwest 87 100 4,500  Level Chicago Center
06:22PM 39.4508 -89.2642 229° Southwest 87 100 4,600  Climbing Chicago Center
06:23PM 39.4333 -89.2867 225° Southwest 89 102 4,600  Level Chicago Center
06:24PM 39.4172 -89.3136 232° Southwest 90 104 4,600  Level Chicago Center
06:25PM 39.4003 -89.3381 228° Southwest 91 105 4,700 60 Climbing Chicago Center
06:26PM 39.3758 -89.3642 220° Southwest 94 108 4,800  Climbing Chicago Center
06:27PM 39.3589 -89.3911 231° Southwest 94 108 4,700 -180 Descending Chicago Center
06:29PM 39.3400 -89.4283 237° Southwest 95 109 4,500 -180 Descending Kansas City Center
06:30PM 39.3222 -89.4547 229° Southwest 97 112 4,300 -60 Descending Kansas City Center
06:31PM 39.3058 -89.4800 230° Southwest 94 108 4,400  Climbing Kansas City Center
06:32PM 39.2917 -89.5111 240° Southwest 85 98 4,400  Level Kansas City Center
06:33PM 39.2778 -89.5361 234° Southwest 86 99 4,500 60 Climbing Kansas City Center
06:34PM 39.2600 -89.5578 223° Southwest 86 99 4,600  Climbing Kansas City Center
06:35PM 39.2461 -89.5828 234° Southwest 86 99 4,600  Level Kansas City Center
06:36PM 39.2303 -89.6075 230° Southwest 88 101 4,600  Level Kansas City Center
06:37PM 39.2164 -89.6344 236° Southwest 90 104 4,700  Climbing Kansas City Center
06:38PM 39.1969 -89.6650 231° Southwest 91 105 4,600 -60 Descending Kansas City Center
06:39PM 39.1811 -89.6911 232° Southwest 92 106 4,600  Level Kansas City Center
06:40PM 39.1661 -89.7169 233° Southwest 92 106 4,600  Level Kansas City Center
06:41PM 39.1494 -89.7411 228° Southwest 90 104 4,600  Level Kansas City Center
06:42PM 39.1317 -89.7642 225° Southwest 91 105 4,600  Level Kansas City Center
06:43PM 39.1167 -89.7886 232° Southwest 88 101 4,600  Level Kansas City Center
06:44PM 39.0978 -89.8175 230° Southwest 88 101 4,600  Level Kansas City Center
06:45PM 39.0819 -89.8414 230° Southwest 88 101 4,700  Climbing Kansas City Center
06:46PM 39.0664 -89.8667 232° Southwest 90 104 4,600 -60 Descending Kansas City Center
06:47PM 39.0497 -89.8928 231° Southwest 95 109 4,600  Level Kansas City Center
06:48PM 39.0350 -89.9167 232° Southwest 87 100 4,600 -60 Level Kansas City Center
06:49PM 39.0150 -89.9458 229° Southwest 91 105 4,500 -60 Descending Kansas City Center
06:50PM 38.9989 -89.9700 229° Southwest 88 101 4,500  Level Kansas City Center
06:51PM 38.9825 -89.9942 229° Southwest 90 104 4,500  Level Kansas City Center
06:52PM 38.9669 -90.0192 231° Southwest 90 104 4,500  Level Kansas City Center
06:53PM 38.9525 -90.0428 232° Southwest 88 101 4,600  Climbing Kansas City Center
06:54PM 38.9378 -90.0683 233° Southwest 87 100 4,500 -60 Descending Kansas City Center
06:55PM 38.9186 -90.0989 231° Southwest 90 104 4,500  Level Kansas City Center
06:57PM 38.9011 -90.1225 226° Southwest 91 105 4,500 -60 Level Kansas City Center
06:58PM 38.8842 -90.1494 231° Southwest 94 108 4,400 -60 Descending Kansas City Center
06:59PM 38.8675 -90.1733 228° Southwest 92 106 4,400  Level Kansas City Center
07:00PM 38.8522 -90.1972 231° Southwest 90 104 4,400 -60 Level Kansas City Center
07:01PM 38.8375 -90.2239 235° Southwest 90 104 4,300  Descending Kansas City Center
07:02PM 38.8167 -90.2519 226° Southwest 90 104 4,400  Climbing Kansas City Center
07:03PM 38.8008 -90.2769 231° Southwest 90 104 4,300 -60 Descending Kansas City Center
07:04PM 38.7861 -90.3025 234° Southwest 90 104 4,300  Level Kansas City Center
07:05PM 38.7750 -90.3275 240° Southwest 87 100 4,300  Level Kansas City Center
07:06PM 38.7592 -90.3489 226° Southwest 83 96 4,400  Climbing Kansas City Center
07:07PM 38.7397 -90.3686 218° Southwest 86 99 4,400  Level Kansas City Center
07:08PM 38.7206 -90.3972 229° Southwest 88 101 4,500  Climbing Kansas City Center
07:09PM 38.7047 -90.4200 228° Southwest 89 102 4,500 -60 Level Kansas City Center
07:10PM 38.6883 -90.4442 229° Southwest 89 102 4,400 -60 Descending Kansas City Center
07:11PM 38.6706 -90.4750 234° Southwest 90 104 4,400  Level Kansas City Center
07:12PM 38.6536 -90.4972 226° Southwest 90 104 4,400 -60 Level Kansas City Center
07:13PM 38.6375 -90.5233 232° Southwest 90 104 4,300 -60 Descending Kansas City Center
07:14PM 38.6225 -90.5497 234° Southwest 91 105 4,300 -60 Level Kansas City Center
07:15PM 38.6075 -90.5739 232° Southwest 90 104 4,200  Descending Kansas City Center
07:16PM 38.5933 -90.5994 235° Southwest 89 102 4,300  Climbing Kansas City Center
07:17PM 38.5750 -90.6272 230° Southwest 87 100 4,300  Level Kansas City Center
07:18PM 38.5603 -90.6517 232° Southwest 87 100 4,300 -60 Level Kansas City Center
07:19PM 38.5442 -90.6758 230° Southwest 88 101 4,200 -60 Descending Kansas City Center
07:20PM 38.5294 -90.7017 234° Southwest 89 102 4,200  Level Kansas City Center
07:21PM 38.5150 -90.7242 231° Southwest 86 99 4,300  Climbing Kansas City Center
07:22PM 38.5008 -90.7494 234° Southwest 86 99 4,300  Level Kansas City Center
07:23PM 38.4847 -90.7789 235° Southwest 86 99 4,300  Level Kansas City Center
07:24PM 38.4722 -90.8036 237° Southwest 84 97 4,400  Climbing Kansas City Center
07:25PM 38.4592 -90.8264 234° Southwest 80 92 4,400  Level Kansas City Center
07:26PM 38.4428 -90.8492 227° Southwest 85 98 4,400  Level Kansas City Center
07:28PM 38.4258 -90.8717 226° Southwest 88 101 4,400  Level Kansas City Center
07:29PM 38.4083 -90.8961 228° Southwest 90 104 4,400  Level Kansas City Center
07:30PM 38.3864 -90.9225 223° Southwest 91 105 4,500  Climbing Kansas City Center
07:31PM 38.3692 -90.9461 227° Southwest 91 105 4,400 -120 Descending Kansas City Center
07:32PM 38.3525 -90.9731 232° Southwest 93 107 4,300  Descending Kansas City Center
07:33PM 38.3372 -90.9967 230° Southwest 91 105 4,400  Climbing Kansas City Center
07:34PM 38.3211 -91.0200 229° Southwest 89 102 4,400  Level Kansas City Center
07:35PM 38.3042 -91.0433 227° Southwest 89 102 4,400  Level Kansas City Center
07:36PM 38.2814 -91.0703 223° Southwest 92 106 4,400 -180 Level Kansas City Center
07:37PM 38.2625 -91.0956 226° Southwest 97 112 4,100 -300 Descending Kansas City Center
07:38PM 38.2450 -91.1214 229° Southwest 98 113 3,900 -300 Descending Kansas City Center
07:39PM 38.2278 -91.1475 230° Southwest 97 112 3,600 -300 Descending Kansas City Center
07:40PM 38.2092 -91.1736 228° Southwest 98 113 3,300 -240 Descending Kansas City Center
07:41PM 38.1919 -91.1989 229° Southwest 96 110 3,200 -180 Descending Kansas City Center
07:42PM 38.1700 -91.2283 227° Southwest 95 109 3,000 -240 Descending Kansas City Center